sensor_id;sensor_type;location;lat;lon;timestamp;P1;durP1;ratioP1;P2;durP2;ratioP2
61344;SDS011;47216;42.656;23.232;2022-12-29T00:01:58;30.87;;;17.60;;
61344;SDS011;47216;42.656;23.232;2022-12-29T00:04:25;30.83;;;16.70;;
61344;SDS011;47216;42.656;23.232;2022-12-29T00:06:52;33.93;;;18.83;;
61344;SDS011;47216;42.656;23.232;2022-12-29T00:09:19;38.13;;;20.13;;
61344;SDS011;47216;42.656;23.232;2022-12-29T00:11:46;38.40;;;20.53;;
61344;SDS011;47216;42.656;23.232;2022-12-29T00:14:15;59.50;;;26.70;;
61344;SDS011;47216;42.656;23.232;2022-12-29T00:17:01;46.80;;;22.93;;
61344;SDS011;47216;42.656;23.232;2022-12-29T00:19:27;47.53;;;22.27;;
61344;SDS011;47216;42.656;23.232;2022-12-29T00:22:12;40.47;;;18.90;;
61344;SDS011;47216;42.656;23.232;2022-12-29T00:24:57;42.03;;;20.50;;
61344;SDS011;47216;42.656;23.232;2022-12-29T00:27:42;38.10;;;19.47;;
61344;SDS011;47216;42.656;23.232;2022-12-29T00:30:26;83.77;;;35.87;;
61344;SDS011;47216;42.656;23.232;2022-12-29T00:33:11;49.53;;;25.43;;
61344;SDS011;47216;42.656;23.232;2022-12-29T00:35:57;40.50;;;21.47;;
61344;SDS011;47216;42.656;23.232;2022-12-29T00:38:26;35.87;;;20.63;;
61344;SDS011;47216;42.656;23.232;2022-12-29T00:41:11;35.37;;;20.67;;
61344;SDS011;47216;42.656;23.232;2022-12-29T00:43:55;46.93;;;23.07;;
61344;SDS011;47216;42.656;23.232;2022-12-29T00:46:31;45.17;;;24.27;;
61344;SDS011;47216;42.656;23.232;2022-12-29T00:48:59;43.50;;;22.67;;
61344;SDS011;47216;42.656;23.232;2022-12-29T00:51:43;35.77;;;20.07;;
61344;SDS011;47216;42.656;23.232;2022-12-29T00:54:10;32.13;;;18.57;;
61344;SDS011;47216;42.656;23.232;2022-12-29T00:56:37;32.20;;;17.13;;
61344;SDS011;47216;42.656;23.232;2022-12-29T00:59:05;28.50;;;17.83;;
61344;SDS011;47216;42.656;23.232;2022-12-29T01:01:33;33.67;;;18.47;;
61344;SDS011;47216;42.656;23.232;2022-12-29T01:04:02;32.17;;;17.80;;
61344;SDS011;47216;42.656;23.232;2022-12-29T01:06:29;25.57;;;16.30;;
61344;SDS011;47216;42.656;23.232;2022-12-29T01:08:56;26.10;;;16.60;;
61344;SDS011;47216;42.656;23.232;2022-12-29T01:11:40;27.43;;;16.77;;
61344;SDS011;47216;42.656;23.232;2022-12-29T01:14:07;24.47;;;15.30;;
61344;SDS011;47216;42.656;23.232;2022-12-29T01:16:33;29.47;;;16.80;;
61344;SDS011;47216;42.656;23.232;2022-12-29T01:19:02;26.03;;;14.40;;
61344;SDS011;47216;42.656;23.232;2022-12-29T01:21:30;29.80;;;15.67;;
61344;SDS011;47216;42.656;23.232;2022-12-29T01:23:57;27.33;;;16.93;;
61344;SDS011;47216;42.656;23.232;2022-12-29T01:26:23;32.93;;;18.87;;
61344;SDS011;47216;42.656;23.232;2022-12-29T01:28:50;26.67;;;16.63;;
61344;SDS011;47216;42.656;23.232;2022-12-29T01:31:17;27.00;;;16.30;;
61344;SDS011;47216;42.656;23.232;2022-12-29T01:33:44;25.77;;;15.63;;
61344;SDS011;47216;42.656;23.232;2022-12-29T01:36:12;27.40;;;17.00;;
61344;SDS011;47216;42.656;23.232;2022-12-29T01:38:40;30.83;;;17.20;;
61344;SDS011;47216;42.656;23.232;2022-12-29T01:41:08;30.43;;;17.07;;
61344;SDS011;47216;42.656;23.232;2022-12-29T01:43:38;30.53;;;16.93;;
61344;SDS011;47216;42.656;23.232;2022-12-29T01:46:07;43.00;;;22.43;;
61344;SDS011;47216;42.656;23.232;2022-12-29T01:48:45;45.80;;;25.80;;
61344;SDS011;47216;42.656;23.232;2022-12-29T01:51:15;41.23;;;22.37;;
61344;SDS011;47216;42.656;23.232;2022-12-29T01:53:42;38.47;;;21.43;;
61344;SDS011;47216;42.656;23.232;2022-12-29T01:56:11;33.13;;;18.90;;
61344;SDS011;47216;42.656;23.232;2022-12-29T01:58:41;33.33;;;19.57;;
61344;SDS011;47216;42.656;23.232;2022-12-29T02:01:12;29.43;;;18.20;;
61344;SDS011;47216;42.656;23.232;2022-12-29T02:03:40;30.83;;;18.50;;
61344;SDS011;47216;42.656;23.232;2022-12-29T02:06:08;37.10;;;19.10;;
61344;SDS011;47216;42.656;23.232;2022-12-29T02:08:42;30.23;;;18.03;;
61344;SDS011;47216;42.656;23.232;2022-12-29T02:11:12;38.73;;;19.50;;
61344;SDS011;47216;42.656;23.232;2022-12-29T02:13:39;37.10;;;19.27;;
61344;SDS011;47216;42.656;23.232;2022-12-29T02:16:10;32.60;;;18.27;;
61344;SDS011;47216;42.656;23.232;2022-12-29T02:18:49;34.43;;;19.27;;
61344;SDS011;47216;42.656;23.232;2022-12-29T02:21:33;59.33;;;26.17;;
61344;SDS011;47216;42.656;23.232;2022-12-29T02:24:39;35.50;;;19.17;;
61344;SDS011;47216;42.656;23.232;2022-12-29T02:27:29;36.83;;;19.40;;
61344;SDS011;47216;42.656;23.232;2022-12-29T02:30:12;30.80;;;16.87;;
61344;SDS011;47216;42.656;23.232;2022-12-29T02:32:52;29.17;;;16.73;;
61344;SDS011;47216;42.656;23.232;2022-12-29T02:35:27;37.13;;;19.07;;
61344;SDS011;47216;42.656;23.232;2022-12-29T02:38:00;41.87;;;20.97;;
61344;SDS011;47216;42.656;23.232;2022-12-29T02:40:40;33.87;;;19.50;;
61344;SDS011;47216;42.656;23.232;2022-12-29T02:43:14;35.47;;;19.60;;
61344;SDS011;47216;42.656;23.232;2022-12-29T02:45:51;38.67;;;20.77;;
61344;SDS011;47216;42.656;23.232;2022-12-29T02:48:25;36.90;;;19.83;;
61344;SDS011;47216;42.656;23.232;2022-12-29T02:50:58;34.63;;;18.60;;
61344;SDS011;47216;42.656;23.232;2022-12-29T02:53:28;33.73;;;20.33;;
61344;SDS011;47216;42.656;23.232;2022-12-29T02:56:14;36.00;;;18.67;;
61344;SDS011;47216;42.656;23.232;2022-12-29T02:58:43;48.53;;;21.70;;
61344;SDS011;47216;42.656;23.232;2022-12-29T03:01:14;63.27;;;25.07;;
61344;SDS011;47216;42.656;23.232;2022-12-29T03:06:49;26.17;;;16.50;;
61344;SDS011;47216;42.656;23.232;2022-12-29T03:09:21;28.43;;;16.47;;
61344;SDS011;47216;42.656;23.232;2022-12-29T03:12:03;29.83;;;16.80;;
61344;SDS011;47216;42.656;23.232;2022-12-29T03:14:44;31.70;;;16.57;;
61344;SDS011;47216;42.656;23.232;2022-12-29T03:17:38;29.07;;;16.13;;
61344;SDS011;47216;42.656;23.232;2022-12-29T03:20:13;22.47;;;14.53;;
61344;SDS011;47216;42.656;23.232;2022-12-29T03:22:44;26.33;;;15.87;;
61344;SDS011;47216;42.656;23.232;2022-12-29T03:25:18;24.10;;;15.63;;
61344;SDS011;47216;42.656;23.232;2022-12-29T03:27:50;21.33;;;15.10;;
61344;SDS011;47216;42.656;23.232;2022-12-29T03:30:21;23.43;;;15.43;;
61344;SDS011;47216;42.656;23.232;2022-12-29T03:32:49;23.70;;;14.77;;
61344;SDS011;47216;42.656;23.232;2022-12-29T03:35:22;25.70;;;15.43;;
61344;SDS011;47216;42.656;23.232;2022-12-29T03:37:52;20.77;;;14.10;;
61344;SDS011;47216;42.656;23.232;2022-12-29T03:40:24;22.47;;;13.00;;
61344;SDS011;47216;42.656;23.232;2022-12-29T03:42:54;22.93;;;14.50;;
61344;SDS011;47216;42.656;23.232;2022-12-29T03:45:21;24.50;;;14.53;;
61344;SDS011;47216;42.656;23.232;2022-12-29T03:47:48;23.90;;;14.63;;
61344;SDS011;47216;42.656;23.232;2022-12-29T03:50:16;23.40;;;14.63;;
61344;SDS011;47216;42.656;23.232;2022-12-29T03:52:44;23.93;;;14.90;;
61344;SDS011;47216;42.656;23.232;2022-12-29T03:55:11;22.73;;;14.00;;
61344;SDS011;47216;42.656;23.232;2022-12-29T03:57:38;24.53;;;14.17;;
61344;SDS011;47216;42.656;23.232;2022-12-29T04:00:05;21.97;;;13.07;;
61344;SDS011;47216;42.656;23.232;2022-12-29T04:02:33;29.13;;;14.90;;
61344;SDS011;47216;42.656;23.232;2022-12-29T04:05:00;29.03;;;16.80;;
61344;SDS011;47216;42.656;23.232;2022-12-29T04:07:26;28.17;;;14.93;;
61344;SDS011;47216;42.656;23.232;2022-12-29T04:09:54;25.37;;;14.03;;
61344;SDS011;47216;42.656;23.232;2022-12-29T04:12:21;21.60;;;13.87;;
61344;SDS011;47216;42.656;23.232;2022-12-29T04:14:48;26.03;;;14.40;;
61344;SDS011;47216;42.656;23.232;2022-12-29T04:17:15;25.20;;;15.30;;
61344;SDS011;47216;42.656;23.232;2022-12-29T04:19:42;23.67;;;14.57;;
61344;SDS011;47216;42.656;23.232;2022-12-29T04:22:08;24.27;;;13.83;;
61344;SDS011;47216;42.656;23.232;2022-12-29T04:24:36;26.20;;;14.93;;
61344;SDS011;47216;42.656;23.232;2022-12-29T04:27:04;26.53;;;14.93;;
61344;SDS011;47216;42.656;23.232;2022-12-29T04:29:31;21.30;;;12.87;;
61344;SDS011;47216;42.656;23.232;2022-12-29T04:31:58;22.23;;;13.70;;
61344;SDS011;47216;42.656;23.232;2022-12-29T04:34:25;28.40;;;14.93;;
61344;SDS011;47216;42.656;23.232;2022-12-29T04:36:52;21.30;;;13.47;;
61344;SDS011;47216;42.656;23.232;2022-12-29T04:39:18;24.03;;;13.37;;
61344;SDS011;47216;42.656;23.232;2022-12-29T04:41:45;20.13;;;13.77;;
61344;SDS011;47216;42.656;23.232;2022-12-29T04:44:14;20.00;;;13.57;;
61344;SDS011;47216;42.656;23.232;2022-12-29T04:46:40;23.90;;;13.97;;
61344;SDS011;47216;42.656;23.232;2022-12-29T04:49:07;21.30;;;14.00;;
61344;SDS011;47216;42.656;23.232;2022-12-29T04:51:34;24.47;;;14.50;;
61344;SDS011;47216;42.656;23.232;2022-12-29T04:54:01;40.67;;;19.93;;
61344;SDS011;47216;42.656;23.232;2022-12-29T04:56:28;36.87;;;18.70;;
61344;SDS011;47216;42.656;23.232;2022-12-29T04:58:55;31.97;;;18.33;;
61344;SDS011;47216;42.656;23.232;2022-12-29T05:01:23;26.50;;;16.53;;
61344;SDS011;47216;42.656;23.232;2022-12-29T05:03:50;25.10;;;15.27;;
61344;SDS011;47216;42.656;23.232;2022-12-29T05:06:17;19.50;;;14.07;;
61344;SDS011;47216;42.656;23.232;2022-12-29T05:08:44;22.37;;;13.80;;
61344;SDS011;47216;42.656;23.232;2022-12-29T05:11:11;26.13;;;15.13;;
61344;SDS011;47216;42.656;23.232;2022-12-29T05:13:37;20.10;;;13.43;;
61344;SDS011;47216;42.656;23.232;2022-12-29T05:16:04;22.07;;;13.67;;
61344;SDS011;47216;42.656;23.232;2022-12-29T05:18:34;22.73;;;13.03;;
61344;SDS011;47216;42.656;23.232;2022-12-29T05:21:01;21.83;;;14.20;;
61344;SDS011;47216;42.656;23.232;2022-12-29T05:23:28;22.30;;;14.80;;
61344;SDS011;47216;42.656;23.232;2022-12-29T05:25:55;23.00;;;14.57;;
61344;SDS011;47216;42.656;23.232;2022-12-29T05:28:21;21.77;;;14.87;;
61344;SDS011;47216;42.656;23.232;2022-12-29T05:30:48;24.10;;;14.63;;
61344;SDS011;47216;42.656;23.232;2022-12-29T05:33:16;23.13;;;13.43;;
61344;SDS011;47216;42.656;23.232;2022-12-29T05:35:45;23.83;;;13.93;;
61344;SDS011;47216;42.656;23.232;2022-12-29T05:38:12;21.97;;;13.70;;
61344;SDS011;47216;42.656;23.232;2022-12-29T05:40:38;23.37;;;14.87;;
61344;SDS011;47216;42.656;23.232;2022-12-29T05:43:05;26.47;;;15.90;;
61344;SDS011;47216;42.656;23.232;2022-12-29T05:45:32;28.67;;;16.53;;
61344;SDS011;47216;42.656;23.232;2022-12-29T05:47:59;28.30;;;17.27;;
61344;SDS011;47216;42.656;23.232;2022-12-29T05:50:25;35.47;;;19.17;;
61344;SDS011;47216;42.656;23.232;2022-12-29T05:52:53;35.43;;;17.70;;
61344;SDS011;47216;42.656;23.232;2022-12-29T05:55:20;34.53;;;16.97;;
61344;SDS011;47216;42.656;23.232;2022-12-29T05:57:47;30.53;;;17.43;;
61344;SDS011;47216;42.656;23.232;2022-12-29T06:00:14;31.83;;;18.17;;
61344;SDS011;47216;42.656;23.232;2022-12-29T06:02:41;26.97;;;16.70;;
61344;SDS011;47216;42.656;23.232;2022-12-29T06:05:08;30.77;;;18.77;;
61344;SDS011;47216;42.656;23.232;2022-12-29T06:07:35;29.20;;;17.13;;
61344;SDS011;47216;42.656;23.232;2022-12-29T06:10:04;30.20;;;18.30;;
61344;SDS011;47216;42.656;23.232;2022-12-29T06:12:32;34.00;;;18.07;;
61344;SDS011;47216;42.656;23.232;2022-12-29T06:14:59;34.33;;;19.47;;
61344;SDS011;47216;42.656;23.232;2022-12-29T06:17:25;33.87;;;20.20;;
61344;SDS011;47216;42.656;23.232;2022-12-29T06:19:52;29.77;;;16.57;;
61344;SDS011;47216;42.656;23.232;2022-12-29T06:22:19;29.97;;;17.57;;
61344;SDS011;47216;42.656;23.232;2022-12-29T06:24:46;33.00;;;17.80;;
61344;SDS011;47216;42.656;23.232;2022-12-29T06:27:14;29.00;;;17.47;;
61344;SDS011;47216;42.656;23.232;2022-12-29T06:29:41;32.47;;;18.53;;
61344;SDS011;47216;42.656;23.232;2022-12-29T06:32:08;40.60;;;25.37;;
61344;SDS011;47216;42.656;23.232;2022-12-29T06:34:36;33.50;;;21.83;;
61344;SDS011;47216;42.656;23.232;2022-12-29T06:37:02;40.57;;;21.47;;
61344;SDS011;47216;42.656;23.232;2022-12-29T06:39:29;35.07;;;21.13;;
61344;SDS011;47216;42.656;23.232;2022-12-29T06:41:56;35.47;;;18.57;;
61344;SDS011;47216;42.656;23.232;2022-12-29T06:44:24;30.17;;;19.00;;
61344;SDS011;47216;42.656;23.232;2022-12-29T06:46:51;31.67;;;20.13;;
61344;SDS011;47216;42.656;23.232;2022-12-29T06:49:18;31.70;;;19.93;;
61344;SDS011;47216;42.656;23.232;2022-12-29T06:51:45;34.20;;;21.03;;
61344;SDS011;47216;42.656;23.232;2022-12-29T06:54:12;33.93;;;20.00;;
61344;SDS011;47216;42.656;23.232;2022-12-29T06:56:39;32.37;;;20.03;;
61344;SDS011;47216;42.656;23.232;2022-12-29T06:59:06;30.30;;;19.13;;
61344;SDS011;47216;42.656;23.232;2022-12-29T07:01:34;31.73;;;17.90;;
61344;SDS011;47216;42.656;23.232;2022-12-29T07:04:01;30.37;;;19.33;;
61344;SDS011;47216;42.656;23.232;2022-12-29T07:06:28;29.33;;;18.27;;
61344;SDS011;47216;42.656;23.232;2022-12-29T07:08:55;31.03;;;19.00;;
61344;SDS011;47216;42.656;23.232;2022-12-29T07:11:22;33.13;;;20.87;;
61344;SDS011;47216;42.656;23.232;2022-12-29T07:13:49;35.93;;;20.00;;
61344;SDS011;47216;42.656;23.232;2022-12-29T07:16:17;35.20;;;20.93;;
61344;SDS011;47216;42.656;23.232;2022-12-29T07:18:45;36.33;;;20.60;;
61344;SDS011;47216;42.656;23.232;2022-12-29T07:21:12;93.77;;;52.23;;
61344;SDS011;47216;42.656;23.232;2022-12-29T07:23:39;37.03;;;21.70;;
61344;SDS011;47216;42.656;23.232;2022-12-29T07:26:07;28.83;;;18.10;;
61344;SDS011;47216;42.656;23.232;2022-12-29T07:28:36;31.10;;;18.50;;
61344;SDS011;47216;42.656;23.232;2022-12-29T07:31:04;32.00;;;18.53;;
61344;SDS011;47216;42.656;23.232;2022-12-29T07:33:31;30.27;;;18.73;;
61344;SDS011;47216;42.656;23.232;2022-12-29T07:36:00;23.10;;;14.20;;
61344;SDS011;47216;42.656;23.232;2022-12-29T07:38:27;23.83;;;14.43;;
61344;SDS011;47216;42.656;23.232;2022-12-29T07:40:56;30.10;;;17.67;;
61344;SDS011;47216;42.656;23.232;2022-12-29T07:43:23;26.20;;;15.87;;
61344;SDS011;47216;42.656;23.232;2022-12-29T07:45:50;25.30;;;15.63;;
61344;SDS011;47216;42.656;23.232;2022-12-29T07:48:16;33.17;;;16.07;;
61344;SDS011;47216;42.656;23.232;2022-12-29T07:50:43;27.73;;;16.33;;
61344;SDS011;47216;42.656;23.232;2022-12-29T07:53:11;25.93;;;16.50;;
61344;SDS011;47216;42.656;23.232;2022-12-29T07:55:38;27.97;;;16.93;;
61344;SDS011;47216;42.656;23.232;2022-12-29T07:58:05;27.87;;;17.00;;
61344;SDS011;47216;42.656;23.232;2022-12-29T08:00:32;26.73;;;16.90;;
61344;SDS011;47216;42.656;23.232;2022-12-29T08:02:59;24.63;;;16.83;;
61344;SDS011;47216;42.656;23.232;2022-12-29T08:05:26;23.07;;;15.70;;
61344;SDS011;47216;42.656;23.232;2022-12-29T08:07:53;23.30;;;15.87;;
61344;SDS011;47216;42.656;23.232;2022-12-29T08:10:21;25.80;;;16.23;;
61344;SDS011;47216;42.656;23.232;2022-12-29T08:12:48;22.00;;;14.37;;
61344;SDS011;47216;42.656;23.232;2022-12-29T08:15:14;20.33;;;14.10;;
61344;SDS011;47216;42.656;23.232;2022-12-29T08:17:41;20.83;;;14.30;;
61344;SDS011;47216;42.656;23.232;2022-12-29T08:20:08;23.43;;;14.23;;
61344;SDS011;47216;42.656;23.232;2022-12-29T08:22:36;19.53;;;14.10;;
61344;SDS011;47216;42.656;23.232;2022-12-29T08:25:03;20.40;;;14.30;;
61344;SDS011;47216;42.656;23.232;2022-12-29T08:27:32;20.80;;;13.43;;
61344;SDS011;47216;42.656;23.232;2022-12-29T08:29:58;27.83;;;13.97;;
61344;SDS011;47216;42.656;23.232;2022-12-29T08:32:26;22.97;;;14.80;;
61344;SDS011;47216;42.656;23.232;2022-12-29T08:34:54;22.10;;;13.70;;
61344;SDS011;47216;42.656;23.232;2022-12-29T08:37:21;20.07;;;13.77;;
61344;SDS011;47216;42.656;23.232;2022-12-29T08:39:51;23.23;;;15.10;;
61344;SDS011;47216;42.656;23.232;2022-12-29T08:42:21;24.17;;;14.93;;
61344;SDS011;47216;42.656;23.232;2022-12-29T08:44:49;24.20;;;15.17;;
61344;SDS011;47216;42.656;23.232;2022-12-29T08:47:15;29.30;;;15.30;;
61344;SDS011;47216;42.656;23.232;2022-12-29T08:49:42;21.63;;;14.83;;
61344;SDS011;47216;42.656;23.232;2022-12-29T08:52:09;25.60;;;15.30;;
61344;SDS011;47216;42.656;23.232;2022-12-29T08:54:36;25.10;;;15.87;;
61344;SDS011;47216;42.656;23.232;2022-12-29T08:57:02;24.93;;;15.03;;
61344;SDS011;47216;42.656;23.232;2022-12-29T08:59:29;23.50;;;15.17;;
61344;SDS011;47216;42.656;23.232;2022-12-29T09:01:57;25.43;;;15.07;;
61344;SDS011;47216;42.656;23.232;2022-12-29T09:04:25;25.67;;;15.87;;
61344;SDS011;47216;42.656;23.232;2022-12-29T09:06:52;23.03;;;14.43;;
61344;SDS011;47216;42.656;23.232;2022-12-29T09:09:19;22.60;;;14.40;;
61344;SDS011;47216;42.656;23.232;2022-12-29T09:11:46;29.13;;;17.03;;
61344;SDS011;47216;42.656;23.232;2022-12-29T09:14:13;25.43;;;15.50;;
61344;SDS011;47216;42.656;23.232;2022-12-29T09:16:40;25.47;;;15.33;;
61344;SDS011;47216;42.656;23.232;2022-12-29T09:19:26;23.93;;;15.30;;
61344;SDS011;47216;42.656;23.232;2022-12-29T09:21:52;22.53;;;15.03;;
61344;SDS011;47216;42.656;23.232;2022-12-29T09:24:19;25.93;;;15.23;;
61344;SDS011;47216;42.656;23.232;2022-12-29T09:26:46;22.30;;;14.80;;
61344;SDS011;47216;42.656;23.232;2022-12-29T09:29:13;24.43;;;14.03;;
61344;SDS011;47216;42.656;23.232;2022-12-29T09:31:39;23.73;;;13.97;;
61344;SDS011;47216;42.656;23.232;2022-12-29T09:34:06;22.03;;;14.33;;
61344;SDS011;47216;42.656;23.232;2022-12-29T09:36:34;22.97;;;14.73;;
61344;SDS011;47216;42.656;23.232;2022-12-29T09:39:02;22.07;;;14.23;;
61344;SDS011;47216;42.656;23.232;2022-12-29T09:41:29;19.63;;;12.97;;
61344;SDS011;47216;42.656;23.232;2022-12-29T09:44:06;18.90;;;13.30;;
61344;SDS011;47216;42.656;23.232;2022-12-29T09:46:39;19.20;;;13.03;;
61344;SDS011;47216;42.656;23.232;2022-12-29T09:49:14;20.20;;;12.40;;
61344;SDS011;47216;42.656;23.232;2022-12-29T09:51:51;21.13;;;13.60;;
61344;SDS011;47216;42.656;23.232;2022-12-29T09:54:40;21.03;;;13.27;;
61344;SDS011;47216;42.656;23.232;2022-12-29T09:57:26;20.20;;;12.77;;
61344;SDS011;47216;42.656;23.232;2022-12-29T09:59:57;22.03;;;13.93;;
61344;SDS011;47216;42.656;23.232;2022-12-29T10:02:34;23.17;;;14.63;;
61344;SDS011;47216;42.656;23.232;2022-12-29T10:05:12;23.87;;;14.13;;
61344;SDS011;47216;42.656;23.232;2022-12-29T10:07:51;22.60;;;12.80;;
61344;SDS011;47216;42.656;23.232;2022-12-29T10:10:31;21.53;;;13.93;;
61344;SDS011;47216;42.656;23.232;2022-12-29T10:13:08;26.43;;;13.40;;
61344;SDS011;47216;42.656;23.232;2022-12-29T10:15:46;23.63;;;12.80;;
61344;SDS011;47216;42.656;23.232;2022-12-29T10:21:25;18.80;;;12.10;;
61344;SDS011;47216;42.656;23.232;2022-12-29T10:24:03;21.33;;;11.73;;
61344;SDS011;47216;42.656;23.232;2022-12-29T10:26:38;18.03;;;11.80;;
61344;SDS011;47216;42.656;23.232;2022-12-29T10:29:10;18.20;;;12.57;;
61344;SDS011;47216;42.656;23.232;2022-12-29T10:31:43;19.00;;;12.37;;
61344;SDS011;47216;42.656;23.232;2022-12-29T10:34:14;19.83;;;11.23;;
61344;SDS011;47216;42.656;23.232;2022-12-29T10:36:46;21.57;;;12.00;;
61344;SDS011;47216;42.656;23.232;2022-12-29T10:39:19;21.40;;;12.80;;
61344;SDS011;47216;42.656;23.232;2022-12-29T10:41:50;19.17;;;12.10;;
61344;SDS011;47216;42.656;23.232;2022-12-29T10:44:21;18.90;;;11.77;;
61344;SDS011;47216;42.656;23.232;2022-12-29T10:46:58;25.20;;;13.63;;
61344;SDS011;47216;42.656;23.232;2022-12-29T10:49:30;21.47;;;12.83;;
61344;SDS011;47216;42.656;23.232;2022-12-29T10:51:59;21.07;;;12.30;;
61344;SDS011;47216;42.656;23.232;2022-12-29T10:54:33;20.60;;;12.23;;
61344;SDS011;47216;42.656;23.232;2022-12-29T10:57:08;16.23;;;11.13;;
61344;SDS011;47216;42.656;23.232;2022-12-29T10:59:38;18.87;;;11.80;;
61344;SDS011;47216;42.656;23.232;2022-12-29T11:02:15;18.00;;;12.63;;
61344;SDS011;47216;42.656;23.232;2022-12-29T11:04:55;22.47;;;12.63;;
61344;SDS011;47216;42.656;23.232;2022-12-29T11:07:30;18.90;;;13.10;;
61344;SDS011;47216;42.656;23.232;2022-12-29T11:12:56;27.00;;;13.27;;
61344;SDS011;47216;42.656;23.232;2022-12-29T11:15:26;27.37;;;14.17;;
61344;SDS011;47216;42.656;23.232;2022-12-29T11:17:56;25.33;;;15.50;;
61344;SDS011;47216;42.656;23.232;2022-12-29T11:20:29;32.03;;;16.67;;
61344;SDS011;47216;42.656;23.232;2022-12-29T11:23:01;27.67;;;16.53;;
61344;SDS011;47216;42.656;23.232;2022-12-29T11:25:31;24.83;;;15.97;;
61344;SDS011;47216;42.656;23.232;2022-12-29T11:27:59;25.57;;;15.83;;
61344;SDS011;47216;42.656;23.232;2022-12-29T11:30:28;26.30;;;14.93;;
61344;SDS011;47216;42.656;23.232;2022-12-29T11:32:56;23.47;;;15.23;;
61344;SDS011;47216;42.656;23.232;2022-12-29T11:35:30;25.33;;;16.43;;
61344;SDS011;47216;42.656;23.232;2022-12-29T11:38:00;29.47;;;16.27;;
61344;SDS011;47216;42.656;23.232;2022-12-29T11:40:30;27.23;;;16.53;;
61344;SDS011;47216;42.656;23.232;2022-12-29T11:43:00;28.30;;;16.47;;
61344;SDS011;47216;42.656;23.232;2022-12-29T11:45:30;28.33;;;18.40;;
61344;SDS011;47216;42.656;23.232;2022-12-29T11:48:00;27.70;;;17.13;;
61344;SDS011;47216;42.656;23.232;2022-12-29T11:50:36;28.43;;;18.93;;
61344;SDS011;47216;42.656;23.232;2022-12-29T11:53:07;25.27;;;16.83;;
61344;SDS011;47216;42.656;23.232;2022-12-29T11:55:43;24.97;;;14.37;;
61344;SDS011;47216;42.656;23.232;2022-12-29T11:58:18;23.23;;;15.73;;
61344;SDS011;47216;42.656;23.232;2022-12-29T12:00:45;30.83;;;14.20;;
61344;SDS011;47216;42.656;23.232;2022-12-29T12:03:15;26.67;;;15.30;;
61344;SDS011;47216;42.656;23.232;2022-12-29T12:05:46;31.63;;;14.93;;
61344;SDS011;47216;42.656;23.232;2022-12-29T12:08:20;27.87;;;15.13;;
61344;SDS011;47216;42.656;23.232;2022-12-29T12:11:02;32.47;;;15.17;;
61344;SDS011;47216;42.656;23.232;2022-12-29T12:13:33;26.60;;;17.07;;
61344;SDS011;47216;42.656;23.232;2022-12-29T12:16:04;24.53;;;14.50;;
61344;SDS011;47216;42.656;23.232;2022-12-29T12:18:37;23.80;;;14.23;;
61344;SDS011;47216;42.656;23.232;2022-12-29T12:21:09;24.03;;;14.00;;
61344;SDS011;47216;42.656;23.232;2022-12-29T12:23:44;25.70;;;14.10;;
61344;SDS011;47216;42.656;23.232;2022-12-29T12:26:27;22.40;;;13.93;;
61344;SDS011;47216;42.656;23.232;2022-12-29T12:28:59;26.73;;;15.20;;
61344;SDS011;47216;42.656;23.232;2022-12-29T12:31:34;27.50;;;15.77;;
61344;SDS011;47216;42.656;23.232;2022-12-29T12:34:11;28.33;;;15.80;;
61344;SDS011;47216;42.656;23.232;2022-12-29T12:36:48;22.97;;;15.40;;
61344;SDS011;47216;42.656;23.232;2022-12-29T12:39:35;29.83;;;16.23;;
61344;SDS011;47216;42.656;23.232;2022-12-29T12:42:16;27.60;;;15.87;;
61344;SDS011;47216;42.656;23.232;2022-12-29T12:44:58;28.13;;;15.67;;
61344;SDS011;47216;42.656;23.232;2022-12-29T12:47:46;29.20;;;16.00;;
61344;SDS011;47216;42.656;23.232;2022-12-29T12:50:32;24.37;;;15.37;;
61344;SDS011;47216;42.656;23.232;2022-12-29T12:53:22;27.60;;;16.47;;
61344;SDS011;47216;42.656;23.232;2022-12-29T12:56:03;31.63;;;16.57;;
61344;SDS011;47216;42.656;23.232;2022-12-29T12:58:46;35.83;;;16.87;;
61344;SDS011;47216;42.656;23.232;2022-12-29T13:01:24;30.93;;;18.43;;
61344;SDS011;47216;42.656;23.232;2022-12-29T13:07:07;46.53;;;22.53;;
61344;SDS011;47216;42.656;23.232;2022-12-29T13:09:45;37.00;;;21.13;;
61344;SDS011;47216;42.656;23.232;2022-12-29T13:12:24;29.30;;;18.07;;
61344;SDS011;47216;42.656;23.232;2022-12-29T13:15:05;30.33;;;18.53;;
61344;SDS011;47216;42.656;23.232;2022-12-29T13:17:42;31.33;;;17.37;;
61344;SDS011;47216;42.656;23.232;2022-12-29T13:20:18;28.37;;;17.93;;
61344;SDS011;47216;42.656;23.232;2022-12-29T13:22:53;26.37;;;16.67;;
61344;SDS011;47216;42.656;23.232;2022-12-29T13:25:27;31.27;;;17.77;;
61344;SDS011;47216;42.656;23.232;2022-12-29T13:28:02;31.83;;;17.17;;
61344;SDS011;47216;42.656;23.232;2022-12-29T13:30:39;41.40;;;18.60;;
61344;SDS011;47216;42.656;23.232;2022-12-29T13:33:13;33.23;;;17.77;;
61344;SDS011;47216;42.656;23.232;2022-12-29T13:35:59;34.23;;;18.30;;
61344;SDS011;47216;42.656;23.232;2022-12-29T13:38:30;27.27;;;17.17;;
61344;SDS011;47216;42.656;23.232;2022-12-29T13:41:04;33.90;;;17.23;;
61344;SDS011;47216;42.656;23.232;2022-12-29T13:43:35;28.47;;;17.83;;
61344;SDS011;47216;42.656;23.232;2022-12-29T13:46:12;25.00;;;16.83;;
61344;SDS011;47216;42.656;23.232;2022-12-29T13:48:49;33.27;;;19.40;;
61344;SDS011;47216;42.656;23.232;2022-12-29T13:51:19;27.00;;;16.37;;
61344;SDS011;47216;42.656;23.232;2022-12-29T13:53:55;37.87;;;18.13;;
61344;SDS011;47216;42.656;23.232;2022-12-29T13:56:34;30.03;;;17.50;;
61344;SDS011;47216;42.656;23.232;2022-12-29T13:59:08;28.57;;;17.10;;
61344;SDS011;47216;42.656;23.232;2022-12-29T14:01:46;28.23;;;16.83;;
61344;SDS011;47216;42.656;23.232;2022-12-29T14:04:23;27.40;;;17.37;;
61344;SDS011;47216;42.656;23.232;2022-12-29T14:07:02;26.00;;;16.80;;
61344;SDS011;47216;42.656;23.232;2022-12-29T14:09:38;33.90;;;17.07;;
61344;SDS011;47216;42.656;23.232;2022-12-29T14:12:24;25.47;;;15.83;;
61344;SDS011;47216;42.656;23.232;2022-12-29T14:15:01;30.57;;;15.20;;
61344;SDS011;47216;42.656;23.232;2022-12-29T14:17:32;37.10;;;17.97;;
61344;SDS011;47216;42.656;23.232;2022-12-29T14:20:00;29.80;;;17.67;;
61344;SDS011;47216;42.656;23.232;2022-12-29T14:22:28;37.23;;;16.57;;
61344;SDS011;47216;42.656;23.232;2022-12-29T14:24:55;28.80;;;16.40;;
61344;SDS011;47216;42.656;23.232;2022-12-29T14:33:17;22.70;;;14.37;;
61344;SDS011;47216;42.656;23.232;2022-12-29T14:35:45;21.77;;;14.33;;
61344;SDS011;47216;42.656;23.232;2022-12-29T14:38:24;28.97;;;14.77;;
61344;SDS011;47216;42.656;23.232;2022-12-29T14:41:15;22.73;;;14.00;;
61344;SDS011;47216;42.656;23.232;2022-12-29T14:43:51;24.10;;;14.37;;
61344;SDS011;47216;42.656;23.232;2022-12-29T14:46:24;25.43;;;13.57;;
61344;SDS011;47216;42.656;23.232;2022-12-29T14:49:09;35.10;;;14.87;;
61344;SDS011;47216;42.656;23.232;2022-12-29T14:51:43;27.90;;;14.90;;